ESSD/BLE METAR and TAF weather

Enter ICAO airport designator
Station Type Date Time Source
ESSD METAR 2019/08/24 09:20 UTC NOAA

ESSD 240920Z AUTO 11005KT 9999 NCD 18/10 Q1025


Station Type Date Time Source
ESSD Decoded METAR 2019/08/24 09:20 UTC NOAA

Station name not available
Aug 24, 2019 - 05:20 AM EDT / 2019.08.24 0920 UTC
Wind: from the ESE (110 degrees) at 6 MPH (5 KT):0
Visibility: greater than 7 mile(s):0
Temperature: 64 F (18 C)
Dew Point: 50 F (10 C)
Relative Humidity: 59%
Pressure (altimeter): 30.27 in. Hg (1025 hPa)
ob: ESSD 240920Z AUTO 11005KT 9999 NCD 18/10 Q1025
cycle: 9

Station Type Date Time Source
ESSD TAF 2018/05/02 04:48 UTC NOAA

TAF TAF ESSD 020320Z 0204/0412 27008KT 9999 BKN019 PROB40 0204/0209 BKN006

Example: see airport list